Time;durP1;ratioP1;P1;durP2;ratioP2;P2;SDS_P1;SDS_P2;PMS_P1;PMS_P2;Temp;Humidity;BMP_temperature;BMP_pressure;BME280_temperature;BME280_humidity;BME280_pressure;Samples;Min_cycle;Max_cycle;Signal;HPM_P1;HPM_P2
2023/04/19 00:01:24;;;;;;;9.70;8.60;;;12.10;99.90;;;;;;5030947;28;20190;-65
2023/04/19 00:03:50;;;;;;;9.23;8.23;;;12.00;99.90;;;;;;5030266;28;20272;-65
2023/04/19 00:06:16;;;;;;;10.30;9.20;;;11.80;99.90;;;;;;5027152;28;20201;-65
2023/04/19 00:08:42;;;;;;;8.90;8.00;;;12.00;99.90;;;;;;5029332;28;20198;-65
2023/04/19 00:11:09;;;;;;;9.02;8.15;;;11.90;99.90;;;;;;5028456;28;20191;-65
2023/04/19 00:13:34;;;;;;;9.50;7.88;;;11.90;99.90;;;;;;5029388;28;20206;-64
2023/04/19 00:16:01;;;;;;;10.10;9.00;;;12.00;99.90;;;;;;5027129;28;20305;-65
2023/04/19 00:18:26;;;;;;;9.25;8.35;;;11.90;99.90;;;;;;5028844;28;20502;-65
2023/04/19 00:20:52;;;;;;;10.00;9.10;;;12.10;99.90;;;;;;5027977;28;20287;-65
2023/04/19 00:23:17;;;;;;;9.60;8.67;;;11.90;99.90;;;;;;5027014;28;20695;-65
2023/04/19 00:25:45;;;;;;;9.17;8.27;;;12.10;99.90;;;;;;5031346;28;20606;-66
2023/04/19 00:28:11;;;;;;;10.02;9.07;;;12.00;99.90;;;;;;5029812;28;20229;-65
2023/04/19 00:30:36;;;;;;;9.93;8.93;;;11.80;99.90;;;;;;5031014;28;20192;-65
2023/04/19 00:33:02;;;;;;;9.90;8.73;;;11.70;99.90;;;;;;5029838;28;20216;-64
2023/04/19 00:35:28;;;;;;;10.00;9.10;;;11.80;99.90;;;;;;5027998;28;20189;-65
2023/04/19 00:37:53;;;;;;;11.30;9.60;;;12.00;99.90;;;;;;5027481;28;20188;-65
2023/04/19 00:40:19;;;;;;;10.03;9.00;;;11.90;99.90;;;;;;5027369;28;20197;-65
2023/04/19 00:42:45;;;;;;;9.33;8.37;;;11.80;99.90;;;;;;5028348;28;20315;-65
2023/04/19 00:45:10;;;;;;;9.77;8.77;;;11.70;99.90;;;;;;5030139;28;20198;-65
2023/04/19 00:47:37;;;;;;;9.40;8.37;;;11.90;99.90;;;;;;5027684;28;20208;-65
2023/04/19 00:50:03;;;;;;;9.63;8.63;;;12.00;99.90;;;;;;5030358;28;20210;-65
2023/04/19 00:52:29;;;;;;;12.48;9.93;;;11.90;99.90;;;;;;5026969;28;20205;-66
2023/04/19 00:54:56;;;;;;;11.83;9.53;;;11.80;99.90;;;;;;5026293;28;20175;-65
2023/04/19 00:57:23;;;;;;;9.90;8.90;;;12.00;99.90;;;;;;5029165;28;20480;-65
2023/04/19 00:59:50;;;;;;;11.60;9.63;;;11.70;99.90;;;;;;5025918;28;20182;-65
2023/04/19 01:02:16;;;;;;;12.02;9.88;;;11.60;99.90;;;;;;5030082;28;20621;-65
2023/04/19 01:04:42;;;;;;;11.82;9.85;;;12.10;99.90;;;;;;5026419;28;20212;-65
2023/04/19 01:07:08;;;;;;;11.33;9.80;;;12.10;99.90;;;;;;5028236;28;20249;-65
2023/04/19 01:09:33;;;;;;;12.18;9.52;;;11.70;99.90;;;;;;5028674;28;20451;-64
2023/04/19 01:12:01;;;;;;;10.70;9.57;;;11.80;99.90;;;;;;5028470;28;20647;-65
2023/04/19 01:14:26;;;;;;;12.52;9.45;;;12.00;99.90;;;;;;5023242;28;20204;-64
2023/04/19 01:16:53;;;;;;;10.33;9.20;;;11.80;99.90;;;;;;5025735;28;20246;-65
2023/04/19 01:19:18;;;;;;;10.25;9.13;;;11.60;99.90;;;;;;5029150;28;20243;-65
2023/04/19 01:21:45;;;;;;;10.60;9.50;;;11.70;99.90;;;;;;5026258;28;20604;-66
2023/04/19 01:24:10;;;;;;;11.00;9.90;;;11.80;99.90;;;;;;5020629;28;20480;-65
2023/04/19 01:26:36;;;;;;;10.87;9.43;;;11.70;99.90;;;;;;5028372;28;20267;-65
2023/04/19 01:29:02;;;;;;;13.30;9.33;;;11.80;99.90;;;;;;5027999;28;20196;-65
2023/04/19 01:31:27;;;;;;;10.57;9.30;;;11.50;99.90;;;;;;5029071;28;20189;-65
2023/04/19 01:33:53;;;;;;;10.80;9.60;;;11.50;99.90;;;;;;5029624;28;20301;-65
2023/04/19 01:36:19;;;;;;;12.40;10.43;;;11.50;99.90;;;;;;5027725;28;20198;-65
2023/04/19 01:38:46;;;;;;;10.93;9.80;;;11.10;99.90;;;;;;5028145;28;20236;-65
2023/04/19 01:41:12;;;;;;;11.90;9.93;;;11.70;99.90;;;;;;5028206;28;20654;-64
2023/04/19 01:43:41;;;;;;;11.97;9.90;;;11.80;99.90;;;;;;5023974;28;20206;-64
2023/04/19 01:46:07;;;;;;;10.43;9.32;;;11.70;99.90;;;;;;5031633;28;20828;-66
2023/04/19 01:48:32;;;;;;;11.97;10.70;;;11.60;99.90;;;;;;5029554;28;20182;-65
2023/04/19 01:50:58;;;;;;;11.43;10.27;;;11.70;99.90;;;;;;5028925;28;20194;-65
2023/04/19 01:53:23;;;;;;;12.57;10.07;;;11.60;99.90;;;;;;5026793;28;20726;-65
2023/04/19 01:55:49;;;;;;;12.77;11.10;;;11.80;99.90;;;;;;5023386;28;20191;-65
2023/04/19 01:58:15;;;;;;;11.17;9.97;;;11.80;99.90;;;;;;5028824;28;20196;-65
2023/04/19 02:22:12;;;;;;;11.77;10.13;;;11.60;99.90;;;;;;5018707;28;20267;-65
2023/04/19 02:24:38;;;;;;;13.07;10.53;;;11.50;99.90;;;;;;5026092;28;20189;-64
2023/04/19 02:27:04;;;;;;;13.23;10.77;;;11.60;99.90;;;;;;5027511;28;20681;-65
2023/04/19 02:29:31;;;;;;;11.48;10.38;;;11.80;99.90;;;;;;5029442;28;20278;-65
2023/04/19 02:31:57;;;;;;;12.38;10.55;;;11.50;99.90;;;;;;5025922;28;20272;-65
2023/04/19 02:34:22;;;;;;;11.77;10.30;;;11.40;99.90;;;;;;5026476;28;20618;-65
2023/04/19 02:36:48;;;;;;;12.83;10.63;;;11.30;99.90;;;;;;5024598;28;20189;-67
2023/04/19 02:39:14;;;;;;;12.30;9.90;;;11.70;99.90;;;;;;5027846;28;20199;-65
2023/04/19 02:41:40;;;;;;;13.93;11.10;;;11.70;99.90;;;;;;5024929;28;20209;-65
2023/04/19 02:44:05;;;;;;;12.45;10.25;;;11.40;99.90;;;;;;5025113;28;20894;-65
2023/04/19 02:46:31;;;;;;;12.87;10.73;;;11.40;99.90;;;;;;5025242;28;20213;-65
2023/04/19 02:48:59;;;;;;;13.37;10.73;;;11.50;99.90;;;;;;5027703;28;20181;-66
2023/04/19 02:51:25;;;;;;;13.52;11.43;;;11.60;99.90;;;;;;5025274;28;20280;-65
2023/04/19 02:53:51;;;;;;;14.50;11.18;;;11.30;99.90;;;;;;5028167;28;20198;-66
2023/04/19 02:56:17;;;;;;;12.27;10.40;;;11.20;99.90;;;;;;5027178;28;20193;-64
2023/04/19 02:58:43;;;;;;;12.83;10.80;;;11.20;99.90;;;;;;5029230;28;20442;-65
2023/04/19 03:01:09;;;;;;;12.83;11.37;;;11.30;99.90;;;;;;5027659;28;20448;-64
2023/04/19 03:03:35;;;;;;;12.95;11.48;;;11.50;99.90;;;;;;5028780;28;21071;-65
2023/04/19 03:06:01;;;;;;;14.20;11.43;;;11.10;99.90;;;;;;5023912;28;20243;-64
2023/04/19 03:08:27;;;;;;;14.45;11.32;;;11.20;99.90;;;;;;5026852;28;20681;-64
2023/04/19 03:10:53;;;;;;;14.27;12.03;;;11.20;99.90;;;;;;5025219;28;20193;-66
2023/04/19 03:13:18;;;;;;;12.77;11.47;;;10.90;99.90;;;;;;5025395;28;20237;-67
2023/04/19 03:15:44;;;;;;;14.70;12.77;;;11.10;99.90;;;;;;5022526;28;20221;-65
2023/04/19 03:18:10;;;;;;;15.10;12.30;;;11.00;99.90;;;;;;5023135;28;20253;-64
2023/04/19 03:20:35;;;;;;;13.70;11.17;;;10.90;99.90;;;;;;5019539;28;20531;-64
2023/04/19 03:23:01;;;;;;;16.37;12.17;;;10.90;99.90;;;;;;5025300;28;20221;-66
2023/04/19 03:25:26;;;;;;;13.27;11.63;;;10.60;99.90;;;;;;5027025;28;20250;-64
2023/04/19 03:27:52;;;;;;;14.00;12.33;;;10.90;99.90;;;;;;5026847;28;20224;-64
2023/04/19 03:30:18;;;;;;;14.10;11.30;;;11.10;99.90;;;;;;5024553;28;20612;-66
2023/04/19 03:32:45;;;;;;;14.07;11.90;;;10.80;99.90;;;;;;5025148;28;20502;-66
2023/04/19 03:35:10;;;;;;;15.00;11.65;;;11.00;99.90;;;;;;5031018;28;20196;-63
2023/04/19 03:37:36;;;;;;;16.17;12.73;;;11.20;99.90;;;;;;5026038;28;20193;-64
2023/04/19 03:40:02;;;;;;;15.13;12.90;;;11.10;99.90;;;;;;5028985;28;20197;-65
2023/04/19 03:42:27;;;;;;;15.53;10.77;;;11.00;99.90;;;;;;5027089;28;20227;-65
2023/04/19 03:44:53;;;;;;;13.40;11.80;;;11.20;99.90;;;;;;5030208;28;20201;-64
2023/04/19 03:47:19;;;;;;;12.80;11.50;;;11.00;99.90;;;;;;5031868;28;20200;-65
2023/04/19 03:49:44;;;;;;;14.80;12.47;;;11.00;99.90;;;;;;5030613;28;20435;-66
2023/04/19 03:52:10;;;;;;;12.60;11.27;;;11.20;99.90;;;;;;5031468;28;20700;-64
2023/04/19 03:54:36;;;;;;;13.83;12.33;;;10.90;99.90;;;;;;5029655;28;20718;-64
2023/04/19 03:57:01;;;;;;;13.37;11.87;;;11.00;99.90;;;;;;5031672;28;20196;-64
2023/04/19 03:59:27;;;;;;;18.60;14.30;;;10.90;99.90;;;;;;5029806;28;20200;-65
2023/04/19 04:01:54;;;;;;;13.82;12.35;;;10.90;99.90;;;;;;5028845;28;20216;-65
2023/04/19 04:04:19;;;;;;;14.50;12.90;;;10.90;99.90;;;;;;5030840;28;20620;-65
2023/04/19 04:06:45;;;;;;;15.30;13.03;;;10.80;99.90;;;;;;5026521;28;20265;-64
2023/04/19 04:09:10;;;;;;;14.80;11.80;;;10.90;99.90;;;;;;5029679;28;20946;-64
2023/04/19 04:11:36;;;;;;;15.90;12.50;;;11.10;99.90;;;;;;5027346;28;20220;-64
2023/04/19 04:14:03;;;;;;;18.48;12.55;;;10.80;99.90;;;;;;5026500;28;20211;-65
2023/04/19 04:16:28;;;;;;;13.52;11.90;;;10.90;99.90;;;;;;5028606;28;20189;-65
2023/04/19 04:18:54;;;;;;;15.03;12.53;;;10.90;99.90;;;;;;5030866;28;20180;-66
2023/04/19 04:21:20;;;;;;;15.50;13.07;;;10.80;99.90;;;;;;5025774;28;20189;-65
2023/04/19 04:23:46;;;;;;;16.30;12.47;;;10.70;99.90;;;;;;5028448;28;20208;-64
2023/04/19 04:26:12;;;;;;;14.30;12.80;;;10.80;99.90;;;;;;5025988;28;20183;-65
2023/04/19 04:28:38;;;;;;;13.50;12.05;;;10.80;99.90;;;;;;5028487;28;20196;-64
2023/04/19 04:31:04;;;;;;;15.90;14.20;;;10.60;99.90;;;;;;5024454;28;20729;-64
2023/04/19 04:33:30;;;;;;;13.70;11.88;;;11.00;99.90;;;;;;5030938;28;20459;-64
2023/04/19 04:35:57;;;;;;;15.87;13.37;;;10.90;99.90;;;;;;5029388;28;20184;-64
2023/04/19 04:38:23;;;;;;;14.95;12.75;;;10.80;99.90;;;;;;5025088;28;20193;-65
2023/04/19 04:40:52;;;;;;;17.70;13.00;;;11.00;99.90;;;;;;5027645;28;20188;-65
2023/04/19 04:43:24;;;;;;;13.70;12.30;;;10.80;99.90;;;;;;5029725;28;20695;-64
2023/04/19 04:45:50;;;;;;;13.90;11.45;;;10.60;99.90;;;;;;5023779;28;20199;-66
2023/04/19 04:48:16;;;;;;;15.43;13.30;;;10.50;99.90;;;;;;5030046;28;20706;-67
2023/04/19 04:50:43;;;;;;;17.47;12.70;;;10.70;99.90;;;;;;5030754;28;20225;-65
2023/04/19 04:53:11;;;;;;;14.93;12.52;;;10.80;99.90;;;;;;5029299;28;20208;-66
2023/04/19 04:55:36;;;;;;;16.55;13.57;;;10.70;99.90;;;;;;5027922;28;20174;-65
2023/04/19 04:58:04;;;;;;;16.80;12.73;;;10.60;99.90;;;;;;5021845;28;20947;-64
2023/04/19 05:00:30;;;;;;;17.25;13.57;;;10.80;99.90;;;;;;5026642;28;20235;-64
2023/04/19 05:02:56;;;;;;;14.82;12.93;;;10.70;99.90;;;;;;5030126;28;20585;-65
2023/04/19 05:05:22;;;;;;;13.15;11.70;;;10.70;99.90;;;;;;5028485;28;20573;-63
2023/04/19 05:07:47;;;;;;;14.43;12.60;;;10.70;99.90;;;;;;5029185;28;20227;-63
2023/04/19 05:10:13;;;;;;;15.33;12.50;;;10.90;99.90;;;;;;5028713;28;20194;-65
2023/04/19 05:12:40;;;;;;;15.10;12.53;;;10.90;99.90;;;;;;5026907;28;20206;-64
2023/04/19 05:15:07;;;;;;;14.82;12.32;;;10.40;99.90;;;;;;5022233;28;20181;-63
2023/04/19 05:17:32;;;;;;;14.52;11.73;;;10.90;99.90;;;;;;5026588;28;20185;-63
2023/04/19 05:19:58;;;;;;;14.70;12.30;;;10.60;99.90;;;;;;5025369;28;20195;-64
2023/04/19 05:22:24;;;;;;;13.10;11.43;;;10.90;99.90;;;;;;5024055;28;20207;-66
2023/04/19 05:24:50;;;;;;;14.57;11.80;;;10.70;99.90;;;;;;5017721;28;20448;-69
2023/04/19 05:27:15;;;;;;;13.10;11.30;;;10.90;99.90;;;;;;5026462;28;20544;-67
2023/04/19 05:29:41;;;;;;;16.00;13.30;;;10.60;99.90;;;;;;5026959;28;20188;-66
2023/04/19 05:32:07;;;;;;;14.43;11.87;;;10.70;99.90;;;;;;5024550;28;20180;-68
2023/04/19 05:34:33;;;;;;;14.77;13.33;;;10.80;99.90;;;;;;5026086;28;20192;-66
2023/04/19 05:36:59;;;;;;;14.80;12.27;;;10.60;99.90;;;;;;5026692;28;20193;-66
2023/04/19 05:39:25;;;;;;;13.98;12.48;;;10.70;99.90;;;;;;5025937;28;20191;-66
2023/04/19 05:41:51;;;;;;;14.57;12.67;;;10.70;99.90;;;;;;5026749;28;20182;-67
2023/04/19 05:44:16;;;;;;;14.47;12.80;;;10.90;99.90;;;;;;5020281;28;21058;-69
2023/04/19 05:46:42;;;;;;;16.13;12.40;;;10.80;99.90;;;;;;5023110;28;20754;-66
2023/04/19 05:49:08;;;;;;;14.23;12.53;;;11.00;99.90;;;;;;5027987;28;20188;-66
2023/04/19 05:51:33;;;;;;;14.80;12.27;;;11.10;99.90;;;;;;5026108;28;20597;-66
2023/04/19 05:54:00;;;;;;;15.73;12.77;;;10.80;99.90;;;;;;5022108;28;20283;-66
2023/04/19 05:56:25;;;;;;;15.85;13.30;;;11.20;99.90;;;;;;5026023;28;20583;-65
2023/04/19 05:58:51;;;;;;;14.67;12.10;;;10.80;99.90;;;;;;5023149;28;20195;-65
2023/04/19 06:01:17;;;;;;;13.53;11.53;;;10.90;99.90;;;;;;5023401;28;20764;-67
2023/04/19 06:03:43;;;;;;;14.63;12.03;;;10.70;99.90;;;;;;5024506;28;20565;-66
2023/04/19 06:06:08;;;;;;;13.80;12.27;;;10.80;99.90;;;;;;5025835;28;20438;-65
2023/04/19 06:08:34;;;;;;;13.13;11.63;;;10.80;99.90;;;;;;5023087;28;20214;-66
2023/04/19 06:11:00;;;;;;;15.13;12.43;;;11.00;99.90;;;;;;5026874;28;20176;-66
2023/04/19 06:13:26;;;;;;;16.02;12.35;;;11.10;99.90;;;;;;5024718;28;20617;-67
2023/04/19 06:15:51;;;;;;;13.33;11.73;;;11.00;99.90;;;;;;5024962;28;20201;-67
2023/04/19 06:18:17;;;;;;;13.50;11.57;;;11.00;99.90;;;;;;5027200;28;20197;-66
2023/04/19 06:20:43;;;;;;;15.27;13.67;;;11.10;99.90;;;;;;5023320;28;20194;-66
2023/04/19 06:23:08;;;;;;;13.90;12.20;;;11.20;99.90;;;;;;5027909;28;20223;-66
2023/04/19 06:25:34;;;;;;;14.90;12.63;;;10.60;99.90;;;;;;5026684;28;20258;-67
2023/04/19 06:28:00;;;;;;;14.23;11.98;;;11.00;99.90;;;;;;5024591;28;20244;-67
2023/04/19 06:30:26;;;;;;;14.53;11.90;;;11.10;99.90;;;;;;5023471;28;20185;-67
2023/04/19 06:32:52;;;;;;;13.30;11.00;;;11.20;99.90;;;;;;5024879;28;20465;-65
2023/04/19 06:35:17;;;;;;;16.97;11.60;;;10.80;99.90;;;;;;5025235;28;20189;-68
2023/04/19 06:37:43;;;;;;;15.93;12.97;;;11.40;99.90;;;;;;5027003;28;20455;-67
2023/04/19 06:40:10;;;;;;;14.90;12.10;;;11.40;99.90;;;;;;5024779;28;20272;-68
2023/04/19 06:42:36;;;;;;;12.40;10.98;;;11.30;99.90;;;;;;5027784;28;20821;-67
2023/04/19 06:45:02;;;;;;;12.35;11.05;;;11.90;99.90;;;;;;5024954;28;20201;-67
2023/04/19 06:47:29;;;;;;;14.25;11.48;;;11.70;99.90;;;;;;5024810;28;20280;-67
2023/04/19 06:49:56;;;;;;;12.52;10.93;;;11.70;99.90;;;;;;5025618;28;20600;-67
2023/04/19 06:52:21;;;;;;;12.80;11.50;;;12.00;99.90;;;;;;5017122;28;20223;-67
2023/04/19 06:54:48;;;;;;;14.33;12.60;;;11.90;99.90;;;;;;5022207;28;20549;-67
2023/04/19 06:57:14;;;;;;;12.90;11.43;;;11.70;99.90;;;;;;5027309;28;20190;-68
2023/04/19 06:59:40;;;;;;;13.75;12.30;;;11.90;99.90;;;;;;5025810;28;21071;-67
2023/04/19 07:02:06;;;;;;;12.50;10.13;;;11.90;99.90;;;;;;5026220;28;20678;-66
2023/04/19 07:04:32;;;;;;;12.55;11.25;;;11.80;99.90;;;;;;5025980;28;20267;-66
2023/04/19 07:06:57;;;;;;;12.63;10.87;;;12.00;99.90;;;;;;5029942;28;20292;-66
2023/04/19 07:09:23;;;;;;;12.00;10.80;;;12.10;99.90;;;;;;5028431;28;20835;-67
2023/04/19 07:11:50;;;;;;;12.30;11.00;;;11.90;99.90;;;;;;5026620;28;20214;-68
2023/04/19 07:14:18;;;;;;;14.48;11.77;;;12.00;99.90;;;;;;5025498;28;20201;-66
2023/04/19 07:16:44;;;;;;;17.85;12.00;;;12.40;99.90;;;;;;5025674;28;20246;-65
2023/04/19 07:19:10;;;;;;;12.23;10.90;;;12.40;99.90;;;;;;5030374;28;20217;-66
2023/04/19 07:21:37;;;;;;;13.70;10.57;;;12.20;99.90;;;;;;5027184;28;20186;-69
2023/04/19 07:24:03;;;;;;;14.38;11.95;;;12.50;99.90;;;;;;5030194;28;20201;-67
2023/04/19 07:26:28;;;;;;;12.30;10.90;;;12.40;99.90;;;;;;5023277;28;20183;-68
2023/04/19 07:28:54;;;;;;;13.23;10.77;;;12.70;99.90;;;;;;5028519;28;20448;-67
2023/04/19 07:31:20;;;;;;;12.48;11.20;;;12.70;99.90;;;;;;5027439;28;20178;-68
2023/04/19 07:33:46;;;;;;;12.77;11.43;;;12.70;99.90;;;;;;5029096;28;20209;-67
2023/04/19 07:36:12;;;;;;;13.10;10.30;;;12.90;99.90;;;;;;5029218;28;20179;-66
2023/04/19 07:38:38;;;;;;;13.40;11.20;;;13.00;99.90;;;;;;5025281;28;20202;-68
2023/04/19 07:41:04;;;;;;;12.00;10.80;;;13.20;99.90;;;;;;5028264;28;20570;-67
2023/04/19 07:43:30;;;;;;;11.93;10.70;;;13.20;99.90;;;;;;5030700;28;20217;-67
2023/04/19 07:45:56;;;;;;;13.13;11.73;;;13.30;99.90;;;;;;5018656;28;20183;-69
2023/04/19 07:48:21;;;;;;;13.33;11.23;;;13.40;99.90;;;;;;5025979;28;20275;-70
2023/04/19 07:50:47;;;;;;;11.57;10.37;;;13.50;99.90;;;;;;5028785;28;20194;-69
2023/04/19 07:53:13;;;;;;;13.43;10.52;;;13.60;99.90;;;;;;5024050;28;20224;-66
2023/04/19 07:55:38;;;;;;;10.63;9.63;;;13.40;99.90;;;;;;5027664;28;20187;-65
2023/04/19 07:58:04;;;;;;;11.47;9.90;;;13.60;99.80;;;;;;5027320;28;20193;-65
2023/04/19 08:00:30;;;;;;;12.07;10.77;;;14.00;99.60;;;;;;5023440;28;20190;-65
2023/04/19 08:02:56;;;;;;;14.93;10.17;;;14.30;99.10;;;;;;5028637;28;20225;-70
2023/04/19 08:05:26;;;;;;;12.27;10.40;;;15.10;97.60;;;;;;5025208;28;20738;-67
2023/04/19 08:07:52;;;;;;;11.70;9.95;;;15.20;97.20;;;;;;5042705;28;20838;-66
2023/04/19 08:10:18;;;;;;;11.63;10.25;;;15.30;96.40;;;;;;5029103;28;20170;-67
2023/04/19 08:12:43;;;;;;;10.98;9.80;;;15.40;96.50;;;;;;5030443;28;20741;-67
2023/04/19 08:15:09;;;;;;;10.80;9.47;;;15.50;95.70;;;;;;5027202;28;20265;-67
2023/04/19 08:17:35;;;;;;;11.07;9.97;;;15.30;95.60;;;;;;5029619;28;20272;-67
2023/04/19 08:20:00;;;;;;;11.63;10.43;;;15.30;95.70;;;;;;5030601;28;20277;-67
2023/04/19 08:22:26;;;;;;;11.83;10.13;;;15.50;95.70;;;;;;5027941;28;20722;-67
2023/04/19 08:24:52;;;;;;;10.30;9.30;;;15.70;95.40;;;;;;5028769;28;20193;-67
2023/04/19 08:27:19;;;;;;;11.88;10.40;;;15.70;95.00;;;;;;5028979;28;20228;-67
2023/04/19 08:29:45;;;;;;;11.23;9.85;;;15.80;94.70;;;;;;5023967;28;20186;-67
2023/04/19 08:32:11;;;;;;;10.80;9.70;;;15.40;94.90;;;;;;5030125;28;20320;-69
2023/04/19 08:34:38;;;;;;;11.95;10.45;;;15.20;95.20;;;;;;5031711;28;21027;-68
2023/04/19 08:37:04;;;;;;;10.68;9.68;;;15.00;95.70;;;;;;5025624;28;20261;-70
2023/04/19 08:39:31;;;;;;;9.65;8.52;;;15.10;94.90;;;;;;5028107;28;20649;-69
2023/04/19 08:42:05;;;;;;;9.63;8.27;;;14.90;94.70;;;;;;5028397;28;20256;-70
2023/04/19 08:44:32;;;;;;;9.10;8.18;;;15.00;94.70;;;;;;5030935;28;20205;-69
2023/04/19 08:47:01;;;;;;;8.45;7.57;;;15.30;94.80;;;;;;5028887;28;20218;-69
2023/04/19 08:49:33;;;;;;;9.38;8.38;;;15.20;94.00;;;;;;5027884;28;20211;-71
2023/04/19 08:52:00;;;;;;;9.15;8.25;;;15.70;93.90;;;;;;5025128;28;20217;-70
2023/04/19 08:54:30;;;;;;;8.57;7.68;;;16.00;92.60;;;;;;5023682;28;20187;-64
2023/04/19 08:56:58;;;;;;;9.32;8.10;;;16.20;92.20;;;;;;5026785;28;20260;-68
2023/04/19 08:59:23;;;;;;;8.98;7.65;;;16.00;92.00;;;;;;5023615;28;20236;-67
2023/04/19 09:01:49;;;;;;;9.10;8.20;;;15.70;92.30;;;;;;5026323;28;20190;-67
2023/04/19 09:04:15;;;;;;;12.33;9.00;;;15.30;92.90;;;;;;5023812;28;20256;-66
2023/04/19 09:06:40;;;;;;;9.77;8.77;;;15.10;93.20;;;;;;5023140;28;20198;-68
2023/04/19 09:09:20;;;;;;;12.80;9.83;;;15.00;93.40;;;;;;5026583;28;20260;-66
2023/04/19 09:11:46;;;;;;;12.05;8.98;;;14.90;93.70;;;;;;5026261;28;20276;-66
2023/04/19 09:14:15;;;;;;;10.73;9.63;;;15.40;92.90;;;;;;5026392;28;20293;-66
2023/04/19 09:16:41;;;;;;;9.48;8.40;;;15.60;92.30;;;;;;5024123;28;20443;-66
2023/04/19 09:19:15;;;;;;;8.95;8.05;;;16.60;92.20;;;;;;5026801;28;20186;-67
2023/04/19 09:21:41;;;;;;;8.60;7.72;;;17.30;89.30;;;;;;5021291;28;20201;-67
2023/04/19 09:24:07;;;;;;;8.37;7.57;;;17.60;87.90;;;;;;5025646;28;20198;-64
2023/04/19 09:26:33;;;;;;;9.75;8.75;;;18.10;86.90;;;;;;5026905;28;20524;-69
2023/04/19 09:29:03;;;;;;;11.40;8.77;;;18.20;85.20;;;;;;5028355;28;20187;-68
2023/04/19 09:31:34;;;;;;;10.93;8.80;;;18.10;85.50;;;;;;5032198;28;20174;-70
2023/04/19 09:34:31;;;;;;;13.40;8.45;;;17.90;86.50;;;;;;5026679;28;20202;-67
2023/04/19 09:36:57;;;;;;;17.55;11.60;;;17.90;86.50;;;;;;5024019;28;20198;-67
2023/04/19 09:39:32;;;;;;;20.90;11.00;;;18.00;86.80;;;;;;5023686;28;20201;-67
2023/04/19 09:41:58;;;;;;;10.60;8.85;;;18.20;86.90;;;;;;5021083;28;20344;-67
2023/04/19 09:44:24;;;;;;;11.00;10.00;;;18.70;86.20;;;;;;5028375;28;20265;-70
2023/04/19 09:46:51;;;;;;;10.27;9.27;;;18.80;84.60;;;;;;5026200;28;20228;-73
2023/04/19 09:49:22;;;;;;;9.68;8.77;;;18.90;83.70;;;;;;5023988;28;20182;-66
2023/04/19 09:51:55;;;;;;;10.80;9.70;;;18.50;85.20;;;;;;5027108;28;20668;-66
2023/04/19 09:54:23;;;;;;;10.63;9.52;;;18.20;85.20;;;;;;5021252;28;20662;-66
2023/04/19 09:56:49;;;;;;;9.18;8.27;;;18.50;85.80;;;;;;5025631;28;20194;-67
2023/04/19 09:59:15;;;;;;;9.85;8.40;;;19.10;84.40;;;;;;5026940;28;20182;-66
2023/04/19 10:02:09;;;;;;;8.90;8.10;;;19.10;81.10;;;;;;5025848;28;20190;-66
2023/04/19 10:04:36;;;;;;;10.95;9.90;;;18.30;81.50;;;;;;5024689;28;20199;-67
2023/04/19 10:07:01;;;;;;;9.90;8.35;;;18.40;84.00;;;;;;5022837;28;20214;-66
2023/04/19 10:09:28;;;;;;;9.50;8.50;;;18.10;83.40;;;;;;5024564;28;20591;-66
2023/04/19 10:11:56;;;;;;;10.25;9.27;;;18.00;84.70;;;;;;5023233;28;20182;-66
2023/04/19 10:14:23;;;;;;;10.55;9.55;;;18.60;84.30;;;;;;5022442;28;20631;-65
2023/04/19 10:16:50;;;;;;;9.70;8.80;;;18.00;83.80;;;;;;5027291;28;20797;-66
2023/04/19 10:19:19;;;;;;;13.20;9.95;;;18.10;83.40;;;;;;5023241;28;20554;-66
2023/04/19 10:21:47;;;;;;;11.30;9.25;;;17.30;84.50;;;;;;5026074;28;20213;-64
2023/04/19 10:24:14;;;;;;;9.55;8.60;;;17.60;85.20;;;;;;5025962;28;20675;-64
2023/04/19 10:27:11;;;;;;;10.25;9.15;;;17.60;85.70;;;;;;5020316;28;20566;-65
2023/04/19 10:29:56;;;;;;;9.52;8.50;;;17.80;85.70;;;;;;5019850;28;20193;-64
2023/04/19 10:32:26;;;;;;;9.75;8.85;;;18.40;84.00;;;;;;5025043;28;20194;-68
2023/04/19 10:34:53;;;;;;;8.43;7.63;;;18.50;83.40;;;;;;5025556;28;20244;-66
2023/04/19 10:37:23;;;;;;;10.50;9.40;;;18.30;84.10;;;;;;5023765;28;20569;-66
2023/04/19 10:39:49;;;;;;;10.30;8.10;;;18.30;84.30;;;;;;5024593;28;20329;-70
2023/04/19 10:42:14;;;;;;;9.25;8.40;;;18.30;84.10;;;;;;5021922;28;20205;-67
2023/04/19 10:44:40;;;;;;;10.10;8.53;;;18.00;85.30;;;;;;5021762;28;20190;-68
2023/04/19 10:47:06;;;;;;;8.23;7.50;;;17.60;86.00;;;;;;5025343;28;20214;-67
2023/04/19 10:49:44;;;;;;;9.02;8.13;;;17.40;86.20;;;;;;5024189;28;20227;-70
2023/04/19 10:52:28;;;;;;;9.50;8.65;;;17.30;87.80;;;;;;5023127;28;20208;-69
2023/04/19 10:54:57;;;;;;;9.00;8.10;;;16.70;89.80;;;;;;5021954;28;20181;-66
2023/04/19 10:57:24;;;;;;;9.85;8.85;;;16.60;90.60;;;;;;5024383;28;20194;-67
2023/04/19 11:00:20;;;;;;;8.85;8.05;;;16.10;90.50;;;;;;5026429;28;20190;-68
2023/04/19 11:02:46;;;;;;;9.57;8.57;;;15.90;91.10;;;;;;5025223;28;20209;-73
2023/04/19 11:05:13;;;;;;;9.80;8.90;;;15.30;91.60;;;;;;5024806;28;20193;-67
2023/04/19 11:07:40;;;;;;;10.15;8.85;;;15.40;92.30;;;;;;5023450;28;20312;-68
2023/04/19 11:10:06;;;;;;;12.32;9.48;;;15.20;92.40;;;;;;5020240;28;20182;-67
2023/04/19 11:12:33;;;;;;;9.95;8.95;;;15.40;93.00;;;;;;5025139;28;20201;-67
2023/04/19 11:14:59;;;;;;;9.18;8.27;;;15.00;93.40;;;;;;5021042;28;20190;-65
2023/04/19 11:17:27;;;;;;;11.23;8.70;;;15.00;93.80;;;;;;5022764;28;20640;-70
2023/04/19 11:20:07;;;;;;;9.73;8.73;;;14.80;93.50;;;;;;5023955;28;20467;-69
2023/04/19 11:22:45;;;;;;;9.30;8.15;;;15.30;93.20;;;;;;5023361;28;20837;-68
2023/04/19 11:25:19;;;;;;;9.55;8.57;;;15.20;93.10;;;;;;5021750;28;20194;-67
2023/04/19 11:27:49;;;;;;;11.00;9.48;;;14.90;93.50;;;;;;5025812;28;20267;-68
2023/04/19 11:30:41;;;;;;;10.25;9.25;;;14.90;94.30;;;;;;5020829;28;20197;-68
2023/04/19 11:33:07;;;;;;;8.65;7.75;;;14.70;94.30;;;;;;5024393;28;20326;-67
2023/04/19 11:35:33;;;;;;;10.80;9.53;;;14.80;94.70;;;;;;5023787;28;20263;-66
2023/04/19 11:37:59;;;;;;;12.30;9.70;;;14.30;94.50;;;;;;5022548;28;20198;-67
2023/04/19 11:40:25;;;;;;;9.30;8.30;;;14.60;95.40;;;;;;5025235;28;20456;-66
2023/04/19 11:43:02;;;;;;;9.82;8.82;;;14.20;95.50;;;;;;5027289;28;20206;-66
2023/04/19 11:45:36;;;;;;;9.75;8.68;;;14.00;96.20;;;;;;5019961;28;20174;-66
2023/04/19 11:48:03;;;;;;;9.77;8.73;;;13.90;97.30;;;;;;5024890;28;20205;-67
2023/04/19 11:50:40;;;;;;;11.30;9.90;;;14.10;97.50;;;;;;5026832;28;20336;-66
2023/04/19 11:53:15;;;;;;;13.48;10.65;;;14.00;97.70;;;;;;5021300;28;20563;-66
2023/04/19 11:55:43;;;;;;;11.15;9.95;;;13.80;98.00;;;;;;5030151;28;20189;-70
2023/04/19 11:58:21;;;;;;;10.98;9.88;;;13.80;98.40;;;;;;5028391;28;20271;-66
2023/04/19 12:00:46;;;;;;;13.00;10.88;;;13.70;98.80;;;;;;5030154;28;20232;-67
2023/04/19 12:03:12;;;;;;;12.57;11.30;;;13.60;99.50;;;;;;5031239;28;20204;-68
2023/04/19 12:05:38;;;;;;;13.53;12.10;;;13.50;99.80;;;;;;5028072;28;20292;-67
2023/04/19 12:08:07;;;;;;;13.95;12.55;;;13.30;99.90;;;;;;5028992;28;20603;-66
2023/04/19 12:10:34;;;;;;;14.10;11.73;;;13.40;99.90;;;;;;5028640;28;20186;-65
2023/04/19 12:13:00;;;;;;;14.98;13.10;;;13.30;99.90;;;;;;5028085;28;20293;-67
2023/04/19 12:15:45;;;;;;;14.20;12.70;;;12.90;99.90;;;;;;5028776;28;20300;-67
2023/04/19 12:18:11;;;;;;;17.15;12.15;;;13.00;99.90;;;;;;5026717;28;20453;-68
2023/04/19 12:20:42;;;;;;;14.98;13.38;;;13.00;99.90;;;;;;5025357;28;20178;-69
2023/04/19 12:23:10;;;;;;;15.02;13.45;;;13.00;99.90;;;;;;5030645;28;20244;-70
2023/04/19 12:25:35;;;;;;;15.45;13.85;;;13.00;99.90;;;;;;5028780;28;20194;-68
2023/04/19 12:28:03;;;;;;;14.53;12.30;;;13.00;99.90;;;;;;5028747;28;20263;-68
2023/04/19 12:30:28;;;;;;;15.55;13.85;;;13.00;99.90;;;;;;5030410;28;20189;-66
2023/04/19 12:32:54;;;;;;;15.73;13.40;;;12.70;99.90;;;;;;5026571;28;20577;-69
2023/04/19 12:35:24;;;;;;;15.53;13.47;;;12.50;99.90;;;;;;5030803;28;20213;-69
2023/04/19 12:37:55;;;;;;;15.35;13.30;;;12.50;99.90;;;;;;5025876;28;20197;-71
2023/04/19 12:40:21;;;;;;;13.77;12.27;;;12.30;99.90;;;;;;5026866;28;21086;-66
2023/04/19 12:42:47;;;;;;;18.05;14.35;;;12.40;99.90;;;;;;5027467;28;20267;-67
2023/04/19 12:45:13;;;;;;;17.88;15.10;;;12.60;99.90;;;;;;5026192;28;20448;-66
2023/04/19 12:47:39;;;;;;;17.57;15.00;;;12.20;99.90;;;;;;5026962;28;20859;-65
2023/04/19 12:50:06;;;;;;;18.20;15.20;;;11.90;99.90;;;;;;5028052;28;20294;-66
2023/04/19 12:52:32;;;;;;;16.45;14.70;;;11.80;99.90;;;;;;5030989;28;20299;-66
2023/04/19 12:54:58;;;;;;;17.57;14.70;;;12.00;99.90;;;;;;5026211;28;20220;-65